Time;durP1;ratioP1;P1;durP2;ratioP2;P2;SDS_P1;SDS_P2;PMS_P1;PMS_P2;Temp;Humidity;BMP_temperature;BMP_pressure;BME280_temperature;BME280_humidity;BME280_pressure;Samples;Min_cycle;Max_cycle;Signal;HPM_P1;HPM_P2
2021/06/08 00:01:15;;;;;;;6.90;6.27;;;19.80;95.10;;;;;;5041659;28;20497;-84
2021/06/08 00:03:41;;;;;;;6.73;6.23;;;19.80;95.10;;;;;;5052131;28;20434;-84
2021/06/08 00:06:08;;;;;;;7.10;6.43;;;19.90;95.20;;;;;;5055738;28;20549;-84
2021/06/08 00:08:34;;;;;;;6.30;5.70;;;19.80;95.30;;;;;;5043397;28;20466;-84
2021/06/08 00:11:03;;;;;;;5.83;5.23;;;19.80;95.40;;;;;;5045023;28;20932;-84
2021/06/08 00:13:32;;;;;;;6.73;6.20;;;19.70;95.50;;;;;;5043006;28;20450;-84
2021/06/08 00:16:04;;;;;;;7.23;6.27;;;19.70;95.90;;;;;;5039490;28;20462;-85
2021/06/08 00:18:30;;;;;;;7.03;6.43;;;19.60;96.10;;;;;;5038486;28;20575;-84
2021/06/08 00:20:56;;;;;;;7.70;6.90;;;19.70;96.20;;;;;;5039364;28;20478;-84
2021/06/08 00:23:22;;;;;;;6.97;6.27;;;19.60;96.30;;;;;;5039199;28;20447;-84
2021/06/08 00:25:48;;;;;;;7.10;6.40;;;19.70;96.50;;;;;;5038829;28;20479;-84
2021/06/08 00:28:14;;;;;;;7.50;6.90;;;19.70;96.90;;;;;;5039984;28;20827;-84
2021/06/08 00:30:41;;;;;;;8.47;7.77;;;19.50;97.20;;;;;;5039608;28;20447;-85
2021/06/08 00:33:08;;;;;;;8.50;7.63;;;19.50;97.80;;;;;;5039714;28;20461;-84
2021/06/08 00:35:34;;;;;;;8.53;7.83;;;19.50;98.30;;;;;;5039700;28;20474;-84
2021/06/08 00:38:00;;;;;;;8.37;7.57;;;19.50;98.40;;;;;;5039976;28;20496;-84
2021/06/08 00:40:27;;;;;;;8.40;7.60;;;19.40;98.60;;;;;;5041592;28;20517;-83
2021/06/08 00:42:54;;;;;;;7.27;6.70;;;19.40;98.70;;;;;;5041614;28;20462;-82
2021/06/08 00:45:21;;;;;;;6.90;6.30;;;19.30;98.80;;;;;;5040572;28;20442;-82
2021/06/08 00:47:47;;;;;;;7.50;6.73;;;19.30;99.00;;;;;;5040612;28;20454;-83
2021/06/08 00:50:14;;;;;;;10.70;7.40;;;19.30;99.70;;;;;;5039849;28;20447;-83
2021/06/08 00:52:40;;;;;;;7.63;6.90;;;19.30;99.90;;;;;;5041045;28;20948;-83
2021/06/08 00:55:10;;;;;;;8.70;8.00;;;19.40;99.90;;;;;;5039774;28;20453;-83
2021/06/08 00:57:36;;;;;;;8.03;7.33;;;19.40;99.90;;;;;;5040399;28;20537;-83
2021/06/08 01:00:04;;;;;;;8.90;8.10;;;19.40;99.90;;;;;;5040211;28;20462;-84
2021/06/08 01:02:30;;;;;;;9.07;8.27;;;19.40;99.90;;;;;;5044487;28;20504;-83
2021/06/08 01:04:56;;;;;;;9.33;8.43;;;19.40;99.90;;;;;;5044337;28;20453;-84
2021/06/08 01:07:24;;;;;;;10.70;7.60;;;19.30;99.90;;;;;;5044326;28;21010;-83
2021/06/08 01:09:53;;;;;;;7.83;7.20;;;19.20;99.90;;;;;;5043998;28;20475;-83
2021/06/08 01:12:19;;;;;;;9.70;8.10;;;19.10;99.90;;;;;;5043550;28;21010;-83
2021/06/08 01:14:45;;;;;;;7.87;7.17;;;19.10;99.90;;;;;;5050652;28;20470;-83
2021/06/08 01:17:11;;;;;;;9.30;7.87;;;18.90;99.90;;;;;;5058739;28;20469;-84
2021/06/08 01:19:37;;;;;;;7.80;7.10;;;18.90;99.90;;;;;;5056640;28;20441;-83
2021/06/08 01:22:05;;;;;;;7.67;7.07;;;18.80;99.90;;;;;;5048695;28;20486;-83
2021/06/08 01:24:31;;;;;;;8.03;7.40;;;18.80;99.90;;;;;;5047399;28;20518;-85
2021/06/08 01:26:57;;;;;;;7.67;7.07;;;18.80;99.90;;;;;;5086584;22;20495;-82
2021/06/08 01:29:25;;;;;;;7.67;7.07;;;18.80;99.90;;;;;;5082952;28;20438;-82
2021/06/08 01:31:53;;;;;;;9.20;8.23;;;18.70;99.90;;;;;;5083066;28;20436;-82
2021/06/08 01:34:19;;;;;;;8.57;7.83;;;18.70;99.90;;;;;;5083008;28;20444;-82
2021/06/08 01:36:47;;;;;;;10.13;7.40;;;18.70;99.90;;;;;;5081840;28;20449;-82
2021/06/08 01:39:14;;;;;;;10.60;8.30;;;18.70;99.90;;;;;;5083738;28;20878;-82
2021/06/08 01:41:42;;;;;;;9.10;8.30;;;18.70;99.90;;;;;;5084137;28;20484;-82
2021/06/08 01:44:08;;;;;;;9.37;8.40;;;18.70;99.90;;;;;;5083273;28;20455;-82
2021/06/08 01:46:34;;;;;;;8.17;7.57;;;18.70;99.90;;;;;;5082361;28;20984;-83
2021/06/08 01:49:00;;;;;;;8.27;7.67;;;18.70;99.90;;;;;;5082300;28;20459;-82
2021/06/08 01:51:35;;;;;;;7.33;6.80;;;18.80;99.90;;;;;;5083261;28;20446;-82
2021/06/08 01:54:08;;;;;;;9.80;8.90;;;18.80;99.90;;;;;;5083779;28;20443;-83
2021/06/08 01:56:39;;;;;;;8.03;7.23;;;18.90;99.90;;;;;;5083821;28;20461;-82
2021/06/08 01:59:13;;;;;;;8.53;7.20;;;18.80;99.90;;;;;;5099178;28;20428;-82
2021/06/08 02:01:55;;;;;;;9.03;7.53;;;18.80;99.90;;;;;;5087165;28;20468;-82
2021/06/08 02:04:25;;;;;;;9.27;7.97;;;18.80;99.90;;;;;;5079124;28;20443;-82
2021/06/08 02:07:01;;;;;;;8.47;7.63;;;18.80;99.90;;;;;;5083243;28;20486;-83
2021/06/08 02:09:37;;;;;;;7.73;7.00;;;18.80;99.90;;;;;;5093523;28;20430;-82
2021/06/08 02:12:13;;;;;;;8.67;7.80;;;18.70;99.90;;;;;;5089679;28;20442;-82
2021/06/08 02:14:43;;;;;;;8.00;7.37;;;18.70;99.90;;;;;;5080390;28;20915;-82
2021/06/08 02:17:16;;;;;;;7.63;7.03;;;18.60;99.90;;;;;;5082615;28;20562;-82
2021/06/08 02:19:45;;;;;;;9.33;8.40;;;18.70;99.90;;;;;;5082771;28;20432;-82
2021/06/08 02:22:11;;;;;;;8.57;7.77;;;18.70;99.90;;;;;;5083031;28;20575;-82
2021/06/08 02:24:38;;;;;;;9.30;7.97;;;18.60;99.90;;;;;;5081930;28;20442;-82
2021/06/08 02:27:09;;;;;;;8.47;7.67;;;18.60;99.90;;;;;;5081464;28;20813;-82
2021/06/08 02:29:38;;;;;;;9.60;8.80;;;18.50;99.90;;;;;;5092434;28;20425;-82
2021/06/08 02:32:07;;;;;;;8.57;7.87;;;18.50;99.90;;;;;;5098676;28;20450;-80
2021/06/08 02:34:33;;;;;;;8.40;7.70;;;18.50;99.90;;;;;;5099012;28;20454;-81
2021/06/08 02:37:01;;;;;;;8.10;7.50;;;18.50;99.90;;;;;;5098639;28;20493;-80
2021/06/08 02:39:28;;;;;;;10.60;8.77;;;18.50;99.90;;;;;;5098945;28;20447;-80
2021/06/08 02:41:57;;;;;;;9.50;8.57;;;18.50;99.90;;;;;;5099133;28;20475;-79
2021/06/08 02:44:25;;;;;;;8.37;7.50;;;18.40;99.90;;;;;;5099094;28;20447;-81
2021/06/08 02:46:53;;;;;;;9.33;8.53;;;18.50;99.90;;;;;;5099087;28;20467;-79
2021/06/08 02:49:20;;;;;;;10.27;9.37;;;18.50;99.90;;;;;;5099338;28;20431;-80
2021/06/08 02:51:47;;;;;;;10.13;9.00;;;18.40;99.90;;;;;;5097109;28;20450;-82
2021/06/08 02:54:15;;;;;;;9.17;8.37;;;18.40;99.90;;;;;;5087246;28;20469;-82
2021/06/08 02:56:42;;;;;;;9.23;8.17;;;18.40;99.90;;;;;;5095560;28;20474;-82
2021/06/08 02:59:09;;;;;;;9.13;8.20;;;18.40;99.90;;;;;;5096409;28;20443;-82
2021/06/08 03:01:43;;;;;;;9.80;8.93;;;18.40;99.90;;;;;;5095033;28;20470;-82
2021/06/08 03:04:11;;;;;;;9.10;8.30;;;18.30;99.90;;;;;;5094917;28;20435;-82
2021/06/08 03:06:42;;;;;;;9.50;8.60;;;18.30;99.90;;;;;;5090519;28;20474;-83
2021/06/08 03:09:12;;;;;;;8.67;7.87;;;18.40;99.90;;;;;;5084170;28;20464;-83
2021/06/08 03:11:55;;;;;;;8.97;7.97;;;19.00;99.90;;;;;;5082428;28;20423;-83
2021/06/08 03:14:22;;;;;;;8.97;8.10;;;18.40;99.90;;;;;;5082368;28;20796;-82
2021/06/08 03:16:54;;;;;;;9.20;8.23;;;18.30;99.90;;;;;;5081808;28;20458;-82
2021/06/08 03:19:24;;;;;;;9.47;8.10;;;18.30;99.90;;;;;;5081334;28;20458;-82
2021/06/08 03:21:52;;;;;;;9.90;9.00;;;18.20;99.90;;;;;;5081711;28;20498;-82
2021/06/08 03:24:22;;;;;;;9.67;8.70;;;18.10;99.90;;;;;;5082265;28;20450;-81
2021/06/08 03:26:50;;;;;;;10.50;9.50;;;18.10;99.90;;;;;;5081731;28;20509;-82
2021/06/08 03:29:17;;;;;;;9.03;8.23;;;18.10;99.90;;;;;;5080039;28;20483;-82
2021/06/08 03:31:46;;;;;;;8.63;7.73;;;18.10;99.90;;;;;;5079948;28;20443;-82
2021/06/08 03:34:15;;;;;;;8.90;8.10;;;18.10;99.90;;;;;;5080813;28;20452;-83
2021/06/08 03:36:42;;;;;;;11.90;8.90;;;18.10;99.90;;;;;;5080962;28;20821;-83
2021/06/08 03:39:09;;;;;;;8.50;7.70;;;18.10;99.90;;;;;;5086647;28;20476;-82
2021/06/08 03:41:35;;;;;;;9.15;8.27;;;18.10;99.90;;;;;;5090323;28;20456;-82
2021/06/08 03:44:02;;;;;;;8.93;8.23;;;18.20;99.90;;;;;;5089013;28;20208;-82
2021/06/08 03:46:28;;;;;;;9.10;8.17;;;18.20;99.90;;;;;;5083472;28;20462;-82
2021/06/08 03:48:57;;;;;;;9.40;8.23;;;18.20;99.90;;;;;;5084571;28;20446;-83
2021/06/08 03:51:27;;;;;;;9.63;8.03;;;18.30;99.90;;;;;;5093223;28;20492;-82
2021/06/08 03:53:53;;;;;;;11.03;8.50;;;18.30;99.90;;;;;;5088180;28;20453;-82
2021/06/08 03:56:20;;;;;;;9.87;8.67;;;18.30;99.90;;;;;;5089586;28;20470;-82
2021/06/08 03:58:46;;;;;;;8.93;7.70;;;18.30;99.90;;;;;;5090227;28;20445;-82
2021/06/08 04:01:13;;;;;;;9.40;8.60;;;18.30;99.90;;;;;;5090860;28;20485;-82
2021/06/08 04:03:40;;;;;;;8.70;7.90;;;18.30;99.90;;;;;;5085279;28;20453;-82
2021/06/08 04:06:07;;;;;;;9.57;8.43;;;18.30;99.90;;;;;;5081479;28;20465;-83
2021/06/08 04:08:34;;;;;;;9.30;8.40;;;18.20;99.90;;;;;;5083415;28;20446;-82
2021/06/08 04:11:00;;;;;;;10.10;9.20;;;18.20;99.90;;;;;;5093851;28;20496;-81
2021/06/08 04:13:27;;;;;;;9.40;8.60;;;18.20;99.90;;;;;;5096603;28;20468;-81
2021/06/08 04:15:54;;;;;;;9.87;8.90;;;18.30;99.90;;;;;;5096432;28;20489;-82
2021/06/08 04:18:20;;;;;;;9.70;8.90;;;18.30;99.90;;;;;;5096406;28;20444;-82
2021/06/08 04:20:47;;;;;;;9.33;8.57;;;18.40;99.90;;;;;;5096160;28;20475;-82
2021/06/08 04:23:14;;;;;;;13.30;10.10;;;18.30;99.90;;;;;;5096591;28;20465;-81
2021/06/08 04:25:44;;;;;;;10.00;9.10;;;18.30;99.90;;;;;;5096142;28;20431;-83
2021/06/08 04:28:10;;;;;;;10.20;8.50;;;18.40;99.90;;;;;;5092245;28;20512;-82
2021/06/08 04:30:36;;;;;;;10.80;8.80;;;18.40;99.90;;;;;;5094561;28;20433;-81
2021/06/08 04:33:03;;;;;;;12.03;9.10;;;18.40;99.90;;;;;;5096962;28;20447;-82
2021/06/08 04:35:29;;;;;;;12.60;9.43;;;18.40;99.90;;;;;;5094444;28;20520;-81
2021/06/08 04:37:55;;;;;;;9.93;9.03;;;18.40;99.90;;;;;;5099162;28;20470;-83
2021/06/08 04:40:23;;;;;;;12.80;10.60;;;18.40;99.90;;;;;;5100879;28;20429;-83
2021/06/08 04:42:50;;;;;;;10.67;9.70;;;18.40;99.90;;;;;;5101474;28;20459;-83
2021/06/08 04:45:17;;;;;;;10.60;9.50;;;18.50;99.90;;;;;;5101335;28;20443;-84
2021/06/08 04:47:43;;;;;;;10.00;9.20;;;18.50;99.90;;;;;;5101418;28;20454;-79
2021/06/08 04:50:12;;;;;;;16.20;14.53;;;18.70;99.90;;;;;;5101690;28;20421;-80
2021/06/08 04:52:38;;;;;;;13.10;11.67;;;18.80;99.90;;;;;;5100897;28;20445;-82
2021/06/08 04:55:05;;;;;;;12.60;10.30;;;18.80;99.90;;;;;;5097672;28;20457;-82
2021/06/08 04:57:33;;;;;;;12.40;11.10;;;18.80;99.90;;;;;;5100245;28;20458;-82
2021/06/08 05:00:06;;;;;;;11.20;10.27;;;18.80;99.90;;;;;;5100447;28;20801;-82
2021/06/08 05:02:36;;;;;;;10.93;9.83;;;18.80;99.90;;;;;;5100177;28;20462;-82
2021/06/08 05:05:05;;;;;;;10.23;9.33;;;18.90;99.90;;;;;;5100224;28;20422;-82
2021/06/08 05:07:35;;;;;;;10.77;9.87;;;19.00;99.90;;;;;;5099937;28;20452;-82
2021/06/08 05:10:03;;;;;;;11.73;10.37;;;19.00;99.90;;;;;;5094271;28;20511;-82
2021/06/08 05:12:30;;;;;;;10.30;9.23;;;18.90;99.90;;;;;;5097606;28;20463;-83
2021/06/08 05:15:00;;;;;;;16.13;10.80;;;19.00;99.90;;;;;;5088448;28;20469;-83
2021/06/08 05:17:28;;;;;;;11.07;10.07;;;19.00;99.90;;;;;;5087220;28;20463;-82
2021/06/08 05:19:55;;;;;;;10.83;9.77;;;19.10;99.90;;;;;;5084251;28;20443;-82
2021/06/08 05:22:24;;;;;;;13.33;11.10;;;19.10;99.90;;;;;;5094551;28;20497;-83
2021/06/08 05:24:51;;;;;;;10.60;9.60;;;19.20;99.90;;;;;;5099418;28;20429;-83
2021/06/08 05:27:19;;;;;;;10.73;9.57;;;19.20;99.90;;;;;;5094569;28;20480;-83
2021/06/08 05:29:46;;;;;;;16.20;9.40;;;18.80;99.90;;;;;;5084689;28;20447;-84
2021/06/08 05:32:13;;;;;;;13.03;10.77;;;19.40;99.90;;;;;;5084906;28;20471;-84
2021/06/08 05:34:42;;;;;;;9.47;8.57;;;19.50;99.90;;;;;;5086885;28;20456;-84
2021/06/08 05:37:09;;;;;;;10.43;9.43;;;19.50;99.90;;;;;;5087964;28;20571;-84
2021/06/08 05:39:36;;;;;;;12.13;11.03;;;19.60;99.90;;;;;;5088982;28;20444;-83
2021/06/08 05:42:04;;;;;;;14.10;10.00;;;19.60;99.90;;;;;;5085386;28;20996;-84
2021/06/08 05:44:30;;;;;;;11.67;9.53;;;19.70;99.90;;;;;;5088270;28;20445;-84
2021/06/08 05:46:57;;;;;;;10.70;9.60;;;19.80;99.90;;;;;;5088162;28;20461;-85
2021/06/08 05:49:23;;;;;;;9.97;8.97;;;19.90;99.90;;;;;;5088617;28;20452;-84
2021/06/08 05:51:51;;;;;;;9.40;8.50;;;20.00;99.90;;;;;;5089174;28;20441;-85
2021/06/08 05:54:18;;;;;;;9.57;8.63;;;20.20;99.90;;;;;;5091594;28;20449;-82
2021/06/08 05:56:45;;;;;;;10.30;8.50;;;20.20;99.90;;;;;;5091925;28;20473;-84
2021/06/08 05:59:14;;;;;;;9.37;8.47;;;20.20;99.90;;;;;;5092495;28;20464;-85
2021/06/08 06:01:41;;;;;;;7.80;7.20;;;20.10;99.90;;;;;;5094642;28;20472;-83
2021/06/08 06:04:07;;;;;;;12.87;9.33;;;20.10;99.90;;;;;;5096433;28;20452;-85
2021/06/08 06:06:34;;;;;;;9.90;9.10;;;20.20;99.90;;;;;;5098455;28;20449;-86
2021/06/08 06:09:03;;;;;;;9.70;8.70;;;20.30;99.90;;;;;;5097683;28;20452;-85
2021/06/08 06:11:30;;;;;;;11.60;8.97;;;20.30;99.90;;;;;;5096031;28;20444;-83
2021/06/08 06:14:01;;;;;;;9.27;8.40;;;20.30;99.90;;;;;;5092431;28;20455;-84
2021/06/08 06:16:30;;;;;;;8.57;7.77;;;20.40;99.90;;;;;;5089837;28;20464;-84
2021/06/08 06:18:57;;;;;;;11.33;8.87;;;20.50;99.90;;;;;;5087426;28;20452;-84
2021/06/08 06:21:25;;;;;;;9.70;8.70;;;20.60;99.90;;;;;;5088758;28;20487;-84
2021/06/08 06:23:52;;;;;;;8.90;8.17;;;20.60;99.90;;;;;;5087909;28;20452;-84
2021/06/08 06:26:20;;;;;;;9.13;8.27;;;20.70;99.90;;;;;;5088805;28;20503;-85
2021/06/08 06:28:47;;;;;;;12.43;8.60;;;20.70;99.90;;;;;;5091174;28;20444;-84
2021/06/08 06:31:14;;;;;;;8.63;7.83;;;20.90;99.90;;;;;;5088000;28;20440;-84
2021/06/08 06:33:43;;;;;;;9.10;8.30;;;21.20;99.90;;;;;;5088560;28;20821;-84
2021/06/08 06:36:11;;;;;;;14.50;8.20;;;21.40;99.90;;;;;;5090047;28;20457;-85
2021/06/08 06:38:38;;;;;;;8.63;7.73;;;21.20;99.90;;;;;;5089214;28;20448;-84
2021/06/08 06:41:07;;;;;;;9.23;8.40;;;21.20;99.90;;;;;;5090484;28;20975;-83
2021/06/08 06:43:36;;;;;;;8.57;7.80;;;21.50;99.90;;;;;;5091973;28;20482;-84
2021/06/08 06:46:02;;;;;;;8.67;7.83;;;21.40;99.90;;;;;;5089373;28;20461;-83
2021/06/08 06:48:29;;;;;;;9.10;8.30;;;21.60;99.90;;;;;;5089568;28;20454;-83
2021/06/08 06:50:55;;;;;;;9.50;8.50;;;21.60;99.90;;;;;;5092121;28;20428;-83
2021/06/08 06:53:22;;;;;;;9.47;8.67;;;21.50;99.90;;;;;;5088090;28;20475;-84
2021/06/08 06:55:49;;;;;;;8.70;7.80;;;21.60;99.90;;;;;;5083524;28;20453;-84
2021/06/08 06:58:17;;;;;;;9.20;7.23;;;21.70;99.90;;;;;;5087201;28;20444;-85
2021/06/08 07:00:46;;;;;;;8.93;8.03;;;21.70;99.90;;;;;;5085532;28;20502;-85
2021/06/08 07:03:15;;;;;;;8.47;7.77;;;21.70;99.90;;;;;;5084724;28;20449;-84
2021/06/08 07:05:44;;;;;;;9.03;8.20;;;21.70;99.90;;;;;;5089397;28;20448;-83
2021/06/08 07:08:11;;;;;;;7.70;7.00;;;21.90;99.90;;;;;;5098459;28;20444;-82
2021/06/08 07:10:37;;;;;;;9.80;9.00;;;22.00;99.90;;;;;;5086869;28;20440;-85
2021/06/08 07:13:06;;;;;;;9.30;8.40;;;22.00;99.90;;;;;;5086708;28;20868;-85
2021/06/08 07:15:33;;;;;;;9.93;8.90;;;22.00;99.90;;;;;;5096771;28;20440;-82
2021/06/08 07:18:04;;;;;;;8.73;7.90;;;22.00;99.90;;;;;;5091741;28;20822;-83
2021/06/08 07:20:30;;;;;;;11.33;10.10;;;22.00;99.90;;;;;;5081791;28;20429;-85
2021/06/08 07:22:58;;;;;;;8.03;7.43;;;22.10;99.90;;;;;;5082514;28;20448;-83
2021/06/08 07:25:24;;;;;;;8.83;7.47;;;22.20;99.90;;;;;;5081790;28;20476;-84
2021/06/08 07:27:52;;;;;;;8.87;8.10;;;22.00;99.90;;;;;;5133542;22;20462;-84
2021/06/08 07:30:20;;;;;;;8.57;7.73;;;22.20;99.90;;;;;;5089427;28;20500;-84
2021/06/08 07:33:01;;;;;;;8.37;7.67;;;22.00;99.90;;;;;;5088241;28;20437;-83
2021/06/08 07:35:32;;;;;;;10.70;7.60;;;22.00;99.90;;;;;;5080641;28;20468;-84
2021/06/08 07:38:07;;;;;;;15.97;9.37;;;22.00;99.90;;;;;;5081242;28;20465;-84
2021/06/08 07:40:38;;;;;;;10.40;9.30;;;22.00;99.90;;;;;;5081776;28;20448;-83
2021/06/08 07:43:05;;;;;;;27.67;8.07;;;22.20;99.90;;;;;;5081923;28;20777;-83
2021/06/08 07:45:36;;;;;;;8.50;7.67;;;22.30;99.90;;;;;;5080261;28;20535;-83
2021/06/08 07:48:06;;;;;;;8.77;7.80;;;22.30;99.90;;;;;;5079236;28;20483;-84
2021/06/08 07:50:37;;;;;;;9.07;8.17;;;22.40;99.90;;;;;;5078886;28;20930;-84
2021/06/08 07:53:04;;;;;;;8.17;7.20;;;22.50;99.90;;;;;;5079252;28;20430;-84
2021/06/08 07:55:31;;;;;;;9.77;8.10;;;22.50;99.90;;;;;;5079752;28;20440;-83
2021/06/08 07:57:57;;;;;;;7.77;6.97;;;22.60;99.90;;;;;;5079617;28;20464;-84
2021/06/08 08:00:24;;;;;;;7.30;6.67;;;22.80;99.90;;;;;;5079491;28;20448;-84
2021/06/08 08:02:53;;;;;;;8.57;7.87;;;22.90;99.90;;;;;;5081501;28;20481;-85
2021/06/08 08:05:22;;;;;;;10.50;6.60;;;22.70;99.90;;;;;;5085951;28;20503;-85
2021/06/08 08:07:50;;;;;;;7.07;6.37;;;22.70;99.90;;;;;;5080122;28;20469;-84
2021/06/08 08:10:21;;;;;;;5.97;5.53;;;22.80;99.90;;;;;;5077091;28;20503;-84
2021/06/08 08:12:48;;;;;;;7.53;6.83;;;23.00;99.90;;;;;;5078362;28;20468;-84
2021/06/08 08:15:14;;;;;;;6.67;6.07;;;23.00;99.90;;;;;;5078358;28;20449;-84
2021/06/08 08:17:42;;;;;;;8.23;6.83;;;23.10;99.90;;;;;;5085133;28;20409;-85
2021/06/08 08:20:10;;;;;;;8.40;6.90;;;24.50;99.90;;;;;;5089706;28;20457;-84
2021/06/08 08:22:36;;;;;;;9.37;5.60;;;23.10;99.90;;;;;;5078219;28;21052;-85
2021/06/08 08:25:05;;;;;;;14.23;10.80;;;23.20;99.90;;;;;;5081807;28;20455;-85
2021/06/08 08:27:31;;;;;;;6.20;5.40;;;23.30;99.90;;;;;;5077199;28;20453;-85
2021/06/08 08:29:57;;;;;;;5.40;5.00;;;23.30;99.90;;;;;;5080307;28;20478;-85
2021/06/08 08:32:24;;;;;;;5.60;5.10;;;23.40;99.90;;;;;;5076528;28;20459;-85
2021/06/08 08:34:50;;;;;;;7.97;5.33;;;23.50;99.90;;;;;;5077568;28;20496;-85
2021/06/08 08:37:16;;;;;;;6.77;5.60;;;23.60;99.90;;;;;;5078019;28;20448;-85
2021/06/08 08:39:42;;;;;;;6.40;5.80;;;23.60;99.90;;;;;;5079729;28;21009;-85
2021/06/08 08:42:10;;;;;;;6.97;5.70;;;23.60;99.90;;;;;;5076860;28;20586;-85
2021/06/08 08:44:37;;;;;;;8.83;6.07;;;23.60;99.90;;;;;;5078080;28;20506;-84
2021/06/08 08:47:03;;;;;;;7.10;6.47;;;23.70;99.90;;;;;;5076656;28;20453;-84
2021/06/08 08:49:29;;;;;;;8.20;5.57;;;23.80;99.90;;;;;;5076747;28;20461;-85
2021/06/08 08:51:56;;;;;;;7.03;5.40;;;23.70;99.90;;;;;;5077732;28;20451;-84
2021/06/08 08:54:23;;;;;;;6.53;6.00;;;23.90;99.90;;;;;;5079247;28;20444;-85
2021/06/08 08:56:50;;;;;;;7.50;6.80;;;24.00;99.90;;;;;;5092353;28;20448;-85
2021/06/08 08:59:19;;;;;;;8.53;6.73;;;24.00;99.90;;;;;;5083703;28;20486;-85
2021/06/08 09:01:50;;;;;;;7.70;7.10;;;24.00;99.90;;;;;;5078481;28;20478;-85
2021/06/08 09:04:18;;;;;;;6.73;6.17;;;24.10;99.90;;;;;;5078201;28;20506;-84
2021/06/08 09:06:44;;;;;;;7.17;6.57;;;24.20;99.90;;;;;;5076003;28;20451;-85
2021/06/08 09:09:11;;;;;;;7.73;6.57;;;24.20;99.90;;;;;;5076379;28;20494;-84
2021/06/08 09:11:40;;;;;;;7.17;6.47;;;23.60;99.90;;;;;;5078654;28;20452;-84
2021/06/08 09:14:08;;;;;;;7.80;7.10;;;24.00;99.90;;;;;;5076213;28;20555;-85
2021/06/08 09:16:36;;;;;;;7.93;6.80;;;24.20;99.90;;;;;;5075954;28;20447;-84
2021/06/08 09:19:03;;;;;;;7.03;6.43;;;24.00;99.90;;;;;;5077987;28;20470;-84
2021/06/08 09:21:31;;;;;;;6.87;6.37;;;24.00;99.90;;;;;;5078133;28;20480;-84
2021/06/08 09:24:15;;;;;;;7.87;7.20;;;23.90;99.90;;;;;;5080028;28;20959;-84
2021/06/08 09:26:50;;;;;;;8.57;7.77;;;24.10;99.90;;;;;;5080162;28;20432;-84
2021/06/08 09:29:27;;;;;;;7.50;6.93;;;24.30;99.90;;;;;;5079525;28;20478;-84
2021/06/08 09:32:17;;;;;;;8.50;7.73;;;24.50;99.90;;;;;;5081193;28;20453;-84
2021/06/08 09:34:45;;;;;;;14.10;6.70;;;24.60;99.90;;;;;;5081142;28;20435;-85
2021/06/08 09:37:11;;;;;;;8.57;7.87;;;24.60;99.90;;;;;;5080619;28;20451;-85
2021/06/08 09:39:47;;;;;;;9.77;8.27;;;24.60;99.90;;;;;;5081041;28;20456;-84
2021/06/08 09:42:25;;;;;;;7.87;6.93;;;24.70;99.90;;;;;;5080274;28;20467;-84
2021/06/08 09:44:52;;;;;;;7.00;6.40;;;24.60;99.90;;;;;;5080640;28;20440;-84
2021/06/08 09:47:27;;;;;;;7.40;6.90;;;24.80;99.90;;;;;;5080247;28;20527;-84
2021/06/08 09:49:53;;;;;;;13.30;6.77;;;24.80;99.90;;;;;;5081159;28;20448;-85
2021/06/08 09:52:20;;;;;;;8.27;7.67;;;24.80;99.90;;;;;;5081832;28;20441;-84
2021/06/08 09:54:50;;;;;;;6.37;5.87;;;24.90;99.90;;;;;;5087062;28;20441;-83
2021/06/08 09:57:27;;;;;;;6.93;6.20;;;25.00;99.90;;;;;;5096112;28;20459;-84
2021/06/08 09:59:58;;;;;;;8.43;6.57;;;25.00;99.90;;;;;;5094419;28;20489;-85
2021/06/08 10:02:35;;;;;;;6.47;5.90;;;24.90;99.90;;;;;;5091038;28;20461;-84
2021/06/08 10:05:19;;;;;;;7.83;6.40;;;24.90;99.90;;;;;;5090883;28;20440;-85
2021/06/08 10:07:46;;;;;;;7.10;6.53;;;25.00;99.90;;;;;;5093287;28;20468;-84
2021/06/08 10:10:14;;;;;;;7.60;6.90;;;25.00;99.90;;;;;;5083282;28;20429;-77
2021/06/08 10:12:56;;;;;;;10.23;9.33;;;24.90;99.90;;;;;;5076638;28;20558;-78
2021/06/08 10:15:23;;;;;;;10.07;7.47;;;24.90;99.90;;;;;;5091587;28;20907;-86
2021/06/08 10:17:58;;;;;;;6.97;6.37;;;24.80;99.90;;;;;;5088655;28;20465;-87
2021/06/08 10:20:29;;;;;;;7.70;7.00;;;24.80;99.90;;;;;;5084513;28;20907;-81
2021/06/08 10:22:56;;;;;;;7.60;6.90;;;24.90;99.90;;;;;;5088087;28;20534;-87
2021/06/08 10:25:23;;;;;;;7.30;6.60;;;24.90;99.90;;;;;;5093236;28;20467;-87
2021/06/08 10:27:49;;;;;;;7.43;6.80;;;25.00;99.90;;;;;;5095385;28;20484;-87
2021/06/08 10:30:17;;;;;;;8.03;7.17;;;25.10;99.90;;;;;;5095222;28;20430;-87
2021/06/08 10:32:43;;;;;;;8.30;6.70;;;25.20;99.90;;;;;;5095060;28;20559;-86
2021/06/08 10:35:12;;;;;;;9.60;6.10;;;25.30;99.90;;;;;;5096838;28;20529;-85
2021/06/08 10:37:38;;;;;;;6.80;6.30;;;25.30;99.90;;;;;;5095020;28;20451;-86
2021/06/08 10:40:06;;;;;;;8.67;6.70;;;25.30;99.90;;;;;;5095600;28;20449;-85
2021/06/08 10:42:33;;;;;;;6.57;6.07;;;25.40;99.90;;;;;;5094351;28;20469;-86
2021/06/08 10:45:03;;;;;;;8.50;7.60;;;25.40;99.90;;;;;;5094423;28;20445;-86
2021/06/08 10:47:36;;;;;;;9.53;8.53;;;25.40;99.90;;;;;;5095022;28;20452;-86
2021/06/08 10:50:21;;;;;;;7.03;6.43;;;25.60;99.90;;;;;;5089234;28;20456;-86
2021/06/08 10:52:49;;;;;;;15.40;8.50;;;25.60;99.90;;;;;;5085518;28;20429;-86
2021/06/08 10:55:16;;;;;;;7.23;6.63;;;25.60;99.90;;;;;;5085142;28;20449;-87
2021/06/08 10:57:46;;;;;;;8.00;7.30;;;25.40;99.90;;;;;;5085750;28;20440;-88
2021/06/08 11:00:36;;;;;;;7.33;6.83;;;25.30;99.90;;;;;;5084704;28;20441;-84
2021/06/08 11:03:03;;;;;;;6.83;6.33;;;25.40;99.90;;;;;;5084312;28;20496;-87
2021/06/08 11:05:56;;;;;;;9.27;7.30;;;25.60;99.90;;;;;;5085267;28;20455;-87
2021/06/08 11:08:55;;;;;;;7.63;7.03;;;25.60;99.90;;;;;;5084181;28;20548;-88
2021/06/08 11:11:46;;;;;;;7.57;6.90;;;25.50;99.90;;;;;;5090992;28;20471;-87
2021/06/08 11:15:02;;;;;;;9.47;7.90;;;25.50;99.90;;;;;;5091644;28;20456;-85
2021/06/08 11:17:34;;;;;;;9.50;7.40;;;25.60;99.90;;;;;;5095560;28;20405;-87
2021/06/08 11:20:04;;;;;;;7.30;6.70;;;25.50;99.90;;;;;;5097908;28;20429;-86
2021/06/08 11:22:55;;;;;;;7.90;6.70;;;25.40;99.90;;;;;;5095959;28;20498;-86
2021/06/08 11:25:54;;;;;;;8.03;7.10;;;25.00;99.90;;;;;;5096013;28;20436;-86
2021/06/08 11:28:22;;;;;;;8.90;6.30;;;25.00;99.90;;;;;;5097260;28;20499;-86
2021/06/08 11:30:58;;;;;;;7.50;7.00;;;24.80;99.90;;;;;;5097235;28;20439;-86
2021/06/08 11:33:31;;;;;;;11.43;7.10;;;24.60;99.90;;;;;;5097984;28;20438;-86
2021/06/08 11:35:59;;;;;;;8.87;7.60;;;24.60;99.90;;;;;;5097359;28;20492;-85
2021/06/08 11:38:33;;;;;;;7.40;6.80;;;24.50;99.90;;;;;;5097169;28;20487;-87
2021/06/08 11:41:08;;;;;;;8.30;7.60;;;24.50;99.90;;;;;;5098027;28;20452;-87
2021/06/08 11:43:50;;;;;;;9.30;7.57;;;24.50;99.90;;;;;;5097464;28;20436;-87
2021/06/08 11:46:19;;;;;;;8.27;7.50;;;24.60;99.90;;;;;;5096828;28;20444;-87
2021/06/08 11:49:07;;;;;;;7.60;6.90;;;24.70;99.90;;;;;;5096296;28;20464;-86
2021/06/08 11:51:37;;;;;;;7.80;7.10;;;24.80;99.90;;;;;;5088794;28;20445;-87
2021/06/08 11:54:06;;;;;;;7.40;6.90;;;24.90;99.90;;;;;;5085849;28;20447;-86
2021/06/08 11:56:48;;;;;;;12.10;10.27;;;23.00;99.90;;;;;;5084764;28;20436;-86
2021/06/08 11:59:17;;;;;;;8.03;7.43;;;25.20;99.90;;;;;;5080604;28;20456;-86
2021/06/08 12:01:48;;;;;;;7.77;7.17;;;25.30;99.90;;;;;;5083362;28;20551;-87
2021/06/08 12:04:15;;;;;;;12.10;10.93;;;25.40;99.90;;;;;;5082230;28;20472;-86
2021/06/08 12:07:00;;;;;;;10.83;9.90;;;25.10;99.90;;;;;;5084652;28;20445;-86
2021/06/08 12:09:28;;;;;;;11.83;7.90;;;25.50;99.90;;;;;;5089469;28;20479;-86
2021/06/08 12:11:58;;;;;;;10.20;6.60;;;25.10;99.90;;;;;;5092890;28;20461;-86
2021/06/08 12:14:30;;;;;;;7.50;6.90;;;25.30;99.90;;;;;;5084080;28;20479;-85
2021/06/08 12:16:58;;;;;;;7.30;6.70;;;25.30;99.90;;;;;;5083133;28;20429;-86
2021/06/08 12:19:31;;;;;;;7.77;7.10;;;24.90;99.90;;;;;;5079450;28;20865;-86
2021/06/08 12:21:59;;;;;;;7.50;6.50;;;25.50;99.90;;;;;;5081509;28;20542;-86
2021/06/08 12:24:26;;;;;;;8.53;7.53;;;25.20;99.90;;;;;;5082535;28;20457;-87
2021/06/08 12:26:54;;;;;;;14.53;7.80;;;24.60;99.90;;;;;;5090478;28;20509;-86
2021/06/08 12:29:20;;;;;;;8.37;7.50;;;24.00;99.90;;;;;;5081523;28;20498;-85
2021/06/08 12:32:04;;;;;;;6.73;6.27;;;25.30;99.90;;;;;;5080734;28;20463;-86
2021/06/08 12:34:35;;;;;;;7.60;6.90;;;25.70;99.90;;;;;;5081742;28;20429;-86
2021/06/08 12:37:03;;;;;;;8.03;7.30;;;26.50;99.90;;;;;;5082055;28;20470;-86
2021/06/08 12:39:32;;;;;;;6.77;6.20;;;26.00;99.90;;;;;;5083931;28;20464;-86
2021/06/08 12:42:12;;;;;;;6.80;6.20;;;25.70;99.90;;;;;;5083081;28;20480;-87
2021/06/08 12:44:40;;;;;;;7.27;6.67;;;25.70;99.90;;;;;;5082756;28;20425;-87
2021/06/08 12:47:09;;;;;;;7.83;6.90;;;25.60;99.90;;;;;;5080907;28;20456;-86
2021/06/08 12:49:37;;;;;;;8.00;6.00;;;25.70;99.90;;;;;;5082592;28;20479;-87
2021/06/08 12:52:06;;;;;;;6.80;6.27;;;23.90;99.90;;;;;;5082076;28;20445;-87
2021/06/08 12:54:35;;;;;;;7.13;6.63;;;25.60;99.90;;;;;;5091565;28;20444;-87